createdAt,value
2023-04-07T00:00:49.954Z,90.09
2023-04-07T00:03:35.752Z,91.35
2023-04-07T00:06:21.567Z,90.93
2023-04-07T00:09:07.342Z,90.65
2023-04-07T00:11:52.905Z,90.84
2023-04-07T00:14:39.191Z,90.28
2023-04-07T00:17:25.371Z,91.32
2023-04-07T00:20:12.296Z,91.73
2023-04-07T00:22:58.036Z,91.21
2023-04-07T00:25:43.794Z,91.70
2023-04-07T00:28:29.651Z,91.63
2023-04-07T00:31:15.535Z,92.09
2023-04-07T00:34:00.939Z,93.02
2023-04-07T00:36:52.027Z,92.75
2023-04-07T00:39:38.024Z,91.89
2023-04-07T00:42:24.147Z,91.66
2023-04-07T00:45:11.568Z,92.68
2023-04-07T00:47:58.716Z,93.72
2023-04-07T00:50:45.966Z,94.19
2023-04-07T00:53:31.663Z,93.18
2023-04-07T00:56:17.790Z,93.69
2023-04-07T00:59:06.593Z,93.68
2023-04-07T01:02:18.448Z,94.42
2023-04-07T01:05:23.329Z,94.90
2023-04-07T01:08:32.419Z,94.63
2023-04-07T01:11:25.882Z,94.24
2023-04-07T01:14:13.686Z,93.03
2023-04-07T01:17:03.969Z,93.75
2023-04-07T01:19:55.890Z,94.42
2023-04-07T01:22:44.544Z,94.38
2023-04-07T01:26:08.820Z,93.93
2023-04-07T01:29:26.973Z,95.70
2023-04-07T01:32:13.049Z,95.43
2023-04-07T01:35:00.054Z,95.14
2023-04-07T01:37:48.739Z,95.24
2023-04-07T01:40:35.607Z,95.87
2023-04-07T01:43:21.667Z,95.42
2023-04-07T01:46:07.644Z,96.52
2023-04-07T01:48:53.408Z,95.86
2023-04-07T01:51:40.716Z,96.41
2023-04-07T01:54:26.336Z,96.94
2023-04-07T01:57:13.210Z,96.86
2023-04-07T01:59:59.826Z,97.56
2023-04-07T02:02:49.838Z,95.72
2023-04-07T02:05:36.828Z,95.47
2023-04-07T02:08:24.529Z,96.40
2023-04-07T02:11:11.844Z,96.72
2023-04-07T02:13:58.473Z,96.40
2023-04-07T02:16:47.684Z,96.73
2023-04-07T02:19:35.992Z,96.06
2023-04-07T02:22:21.840Z,97.65
2023-04-07T02:25:23.819Z,97.73
2023-04-07T02:28:09.343Z,97.09
2023-04-07T02:30:55.460Z,97.37
2023-04-07T02:33:40.886Z,98.46
2023-04-07T02:36:27.206Z,96.89
2023-04-07T02:39:13.062Z,97.31
2023-04-07T02:41:59.782Z,99.15
2023-04-07T02:44:48.003Z,97.17
2023-04-07T02:47:34.613Z,97.51
2023-04-07T02:50:20.534Z,98.52
2023-04-07T02:53:06.990Z,99.29
2023-04-07T02:55:52.701Z,99.35
2023-04-07T02:58:39.277Z,98.67
2023-04-07T03:01:25.517Z,99.52
2023-04-07T03:04:11.659Z,100.00
2023-04-07T03:06:57.710Z,100.00
2023-04-07T03:09:45.107Z,100.00
2023-04-07T03:12:31.192Z,100.00
2023-04-07T03:15:18.729Z,99.95
2023-04-07T03:18:06.854Z,100.00
2023-04-07T03:20:55.259Z,100.00
2023-04-07T03:23:41.068Z,100.00
2023-04-07T03:26:27.631Z,100.00
2023-04-07T03:29:14.498Z,100.00
2023-04-07T03:32:02.149Z,100.00
2023-04-07T03:34:47.672Z,100.00
2023-04-07T03:37:33.966Z,100.00
2023-04-07T03:40:20.232Z,100.00
2023-04-07T03:43:06.631Z,100.00
2023-04-07T03:45:55.414Z,100.00
2023-04-07T03:48:42.616Z,100.00
2023-04-07T03:51:29.653Z,100.00
2023-04-07T03:54:17.810Z,100.00
2023-04-07T03:57:04.324Z,100.00
2023-04-07T03:59:53.667Z,100.00
2023-04-07T04:02:40.565Z,100.00
2023-04-07T04:05:28.355Z,100.00
2023-04-07T04:08:14.302Z,100.00
2023-04-07T04:11:01.137Z,100.00
2023-04-07T04:13:53.869Z,100.00
2023-04-07T04:16:40.054Z,100.00
2023-04-07T04:19:39.114Z,100.00
2023-04-07T04:22:33.476Z,100.00
2023-04-07T04:25:18.894Z,100.00
2023-04-07T04:28:10.034Z,100.00
2023-04-07T04:30:56.063Z,100.00
2023-04-07T04:33:43.330Z,100.00
2023-04-07T04:36:29.245Z,100.00
2023-04-07T04:39:20.454Z,100.00
2023-04-07T04:42:06.668Z,100.00
2023-04-07T04:44:55.347Z,100.00
2023-04-07T04:47:41.641Z,100.00
2023-04-07T04:50:28.128Z,100.00
2023-04-07T04:53:14.693Z,100.00
2023-04-07T04:56:08.552Z,100.00
2023-04-07T04:59:07.336Z,100.00
2023-04-07T05:02:02.857Z,100.00
2023-04-07T05:04:48.742Z,100.00
2023-04-07T05:07:42.204Z,100.00
2023-04-07T05:10:24.427Z,100.00
2023-04-07T05:17:31.078Z,100.00
2023-04-07T05:20:31.481Z,100.00
2023-04-07T05:23:18.441Z,100.00
2023-04-07T05:29:59.978Z,100.00
2023-04-07T05:33:38.582Z,100.00
2023-04-07T05:36:50.846Z,100.00
2023-04-07T05:40:02.278Z,100.00
2023-04-07T05:42:51.076Z,100.00
2023-04-07T05:46:37.603Z,100.00
2023-04-07T05:49:24.562Z,100.00
2023-04-07T05:52:45.610Z,100.00
2023-04-07T05:55:47.313Z,100.00
2023-04-07T05:59:10.597Z,100.00
2023-04-07T06:03:19.600Z,100.00
2023-04-07T06:11:07.365Z,100.00
2023-04-07T07:40:33.506Z,100.00
2023-04-07T07:44:10.180Z,100.00
2023-04-07T08:02:44.040Z,100.00
2023-04-07T08:10:47.657Z,100.00
2023-04-07T08:14:17.088Z,100.00
2023-04-07T08:17:08.815Z,100.00
2023-04-07T08:20:00.032Z,100.00
2023-04-07T08:22:55.286Z,100.00
2023-04-07T08:25:57.441Z,100.00
2023-04-07T08:28:51.775Z,100.00
2023-04-07T08:31:38.892Z,100.00
2023-04-07T08:34:32.186Z,100.00
2023-04-07T08:37:21.554Z,100.00
2023-04-07T08:40:09.561Z,100.00
2023-04-07T08:42:56.652Z,100.00
2023-04-07T08:45:43.093Z,100.00
2023-04-07T08:48:34.020Z,100.00
2023-04-07T08:51:28.818Z,100.00
2023-04-07T08:54:19.047Z,100.00
2023-04-07T08:57:05.416Z,100.00
2023-04-07T08:59:52.161Z,100.00
2023-04-07T09:02:41.677Z,100.00
2023-04-07T09:05:28.591Z,100.00
2023-04-07T09:08:14.555Z,100.00
2023-04-07T09:11:01.364Z,100.00
2023-04-07T09:13:47.246Z,100.00
2023-04-07T09:16:34.399Z,100.00
2023-04-07T09:19:20.594Z,100.00
2023-04-07T09:22:06.680Z,100.00
2023-04-07T09:24:52.623Z,100.00
2023-04-07T09:27:38.899Z,100.00
2023-04-07T09:30:25.493Z,100.00
2023-04-07T09:33:16.541Z,100.00
2023-04-07T09:36:05.155Z,100.00
2023-04-07T09:38:51.332Z,100.00
2023-04-07T09:41:37.287Z,100.00
2023-04-07T09:44:24.012Z,100.00
2023-04-07T09:47:10.226Z,100.00
2023-04-07T09:49:56.933Z,100.00
2023-04-07T09:52:51.008Z,100.00
2023-04-07T09:59:20.162Z,100.00
2023-04-07T10:02:25.801Z,100.00
2023-04-07T10:05:12.981Z,100.00
2023-04-07T10:07:58.990Z,100.00
2023-04-07T10:10:44.775Z,100.00
2023-04-07T10:13:32.269Z,100.00
2023-04-07T10:16:18.775Z,100.00
2023-04-07T10:19:06.626Z,100.00
2023-04-07T10:21:54.614Z,100.00
2023-04-07T10:24:55.953Z,100.00
2023-04-07T10:27:59.798Z,100.00
2023-04-07T10:30:48.311Z,100.00
2023-04-07T10:33:50.411Z,100.00
2023-04-07T10:36:36.820Z,100.00
2023-04-07T10:39:23.352Z,100.00
2023-04-07T10:42:37.122Z,100.00
2023-04-07T10:45:46.586Z,100.00
2023-04-07T10:48:35.613Z,100.00
2023-04-07T10:51:21.272Z,100.00
2023-04-07T10:54:17.863Z,100.00
2023-04-07T10:57:03.798Z,100.00
2023-04-07T11:00:11.707Z,100.00
2023-04-07T11:02:57.712Z,100.00
2023-04-07T11:05:44.188Z,100.00
2023-04-07T11:08:45.670Z,100.00
2023-04-07T11:11:42.012Z,100.00
2023-04-07T11:14:29.237Z,100.00
2023-04-07T11:17:17.716Z,100.00
2023-04-07T11:20:04.683Z,100.00
2023-04-07T11:23:00.627Z,100.00
2023-04-07T11:25:48.756Z,100.00
2023-04-07T11:28:34.995Z,100.00
2023-04-07T11:31:28.879Z,100.00
2023-04-07T11:34:15.099Z,100.00
2023-04-07T11:37:24.911Z,100.00
2023-04-07T11:40:11.611Z,100.00
2023-04-07T11:42:58.120Z,100.00
2023-04-07T11:45:44.388Z,100.00
2023-04-07T11:48:30.827Z,100.00
2023-04-07T11:51:23.953Z,100.00
2023-04-07T11:54:10.411Z,100.00
2023-04-07T11:56:57.019Z,100.00
2023-04-07T11:59:42.810Z,100.00
2023-04-07T12:02:33.969Z,100.00
2023-04-07T12:05:19.915Z,100.00
2023-04-07T12:08:06.141Z,100.00
2023-04-07T12:11:04.801Z,100.00
2023-04-07T12:13:52.065Z,100.00
2023-04-07T12:16:39.483Z,100.00
2023-04-07T12:19:28.238Z,100.00
2023-04-07T12:22:14.217Z,100.00
2023-04-07T12:25:01.005Z,100.00
2023-04-07T12:27:46.881Z,100.00
2023-04-07T12:30:34.002Z,100.00
2023-04-07T12:33:20.257Z,100.00
2023-04-07T12:36:06.656Z,100.00
2023-04-07T12:38:52.959Z,100.00
2023-04-07T12:41:39.810Z,100.00
2023-04-07T12:44:25.873Z,100.00
2023-04-07T12:47:12.658Z,100.00
2023-04-07T12:49:58.225Z,100.00
2023-04-07T12:52:44.549Z,100.00
2023-04-07T12:55:33.846Z,100.00
2023-04-07T12:58:20.612Z,100.00
2023-04-07T13:01:07.162Z,100.00
2023-04-07T13:03:54.057Z,100.00
2023-04-07T13:06:40.581Z,100.00
2023-04-07T13:09:27.017Z,100.00
2023-04-07T13:12:13.352Z,100.00
2023-04-07T13:15:01.070Z,100.00
2023-04-07T13:17:47.420Z,100.00
2023-04-07T13:20:34.245Z,100.00
2023-04-07T13:23:20.793Z,100.00
2023-04-07T13:26:07.548Z,100.00
2023-04-07T13:28:53.826Z,100.00
2023-04-07T13:31:40.866Z,100.00
2023-04-07T13:34:28.604Z,100.00
2023-04-07T13:37:16.688Z,100.00
2023-04-07T13:40:03.266Z,100.00
2023-04-07T13:42:50.105Z,100.00
2023-04-07T13:45:37.066Z,100.00
2023-04-07T13:48:23.678Z,100.00
2023-04-07T13:51:12.049Z,100.00
2023-04-07T13:53:58.686Z,100.00
2023-04-07T13:56:49.538Z,100.00
2023-04-07T13:59:36.946Z,100.00
2023-04-07T14:02:24.973Z,100.00
2023-04-07T14:05:11.511Z,100.00
2023-04-07T14:08:01.712Z,100.00
2023-04-07T14:10:48.751Z,100.00
2023-04-07T14:13:38.519Z,100.00
2023-04-07T14:16:25.779Z,100.00
2023-04-07T14:19:12.064Z,100.00
2023-04-07T14:21:58.663Z,100.00
2023-04-07T14:24:45.389Z,100.00
2023-04-07T14:27:32.734Z,100.00
2023-04-07T14:30:19.440Z,100.00
2023-04-07T14:33:06.191Z,100.00
2023-04-07T14:35:53.023Z,100.00
2023-04-07T14:38:41.260Z,100.00
2023-04-07T14:41:33.124Z,100.00
2023-04-07T14:44:19.613Z,100.00
2023-04-07T14:47:06.205Z,100.00
2023-04-07T14:49:53.823Z,100.00
2023-04-07T14:52:39.729Z,100.00
2023-04-07T14:55:27.295Z,100.00
2023-04-07T14:58:13.737Z,100.00
2023-04-07T15:01:02.084Z,100.00
2023-04-07T15:03:49.775Z,100.00
2023-04-07T15:06:36.973Z,100.00
2023-04-07T15:09:24.086Z,100.00
2023-04-07T15:12:11.051Z,100.00
2023-04-07T15:14:58.389Z,100.00
2023-04-07T15:17:45.571Z,100.00
2023-04-07T15:20:32.636Z,100.00
2023-04-07T15:23:22.161Z,100.00
2023-04-07T15:26:09.913Z,100.00
2023-04-07T15:28:55.924Z,100.00
2023-04-07T15:31:42.652Z,100.00
2023-04-07T15:34:29.374Z,100.00
2023-04-07T15:37:17.440Z,100.00
2023-04-07T15:40:04.237Z,100.00
2023-04-07T15:42:51.498Z,100.00
2023-04-07T15:45:44.897Z,100.00
2023-04-07T15:48:31.464Z,100.00
2023-04-07T15:51:19.873Z,100.00
2023-04-07T15:54:05.926Z,100.00
2023-04-07T15:56:52.958Z,100.00
2023-04-07T15:59:40.218Z,100.00
2023-04-07T16:02:26.740Z,100.00
2023-04-07T16:05:12.871Z,100.00
2023-04-07T16:07:59.398Z,100.00
2023-04-07T16:10:46.763Z,100.00
2023-04-07T16:13:33.179Z,100.00
2023-04-07T16:16:19.934Z,100.00
2023-04-07T16:19:05.949Z,100.00
2023-04-07T16:21:52.608Z,100.00
2023-04-07T16:24:39.467Z,100.00
2023-04-07T16:27:26.153Z,100.00
2023-04-07T16:30:15.709Z,100.00
2023-04-07T16:33:01.987Z,100.00
2023-04-07T16:35:49.819Z,100.00
2023-04-07T16:38:35.492Z,100.00
2023-04-07T16:41:23.709Z,100.00
2023-04-07T16:44:09.679Z,100.00
2023-04-07T16:46:56.535Z,100.00
2023-04-07T16:49:42.711Z,100.00
2023-04-07T16:52:29.290Z,100.00
2023-04-07T16:55:15.419Z,100.00
2023-04-07T16:58:01.990Z,100.00
2023-04-07T17:00:47.786Z,100.00
2023-04-07T17:03:34.261Z,100.00
2023-04-07T17:06:20.488Z,100.00
2023-04-07T17:09:06.623Z,100.00
2023-04-07T17:11:52.455Z,100.00
2023-04-07T17:14:39.283Z,100.00
2023-04-07T17:17:25.431Z,100.00
2023-04-07T17:20:12.671Z,100.00
2023-04-07T17:22:58.654Z,100.00
2023-04-07T17:25:49.801Z,100.00
2023-04-07T17:28:35.547Z,100.00
2023-04-07T17:31:22.506Z,100.00
2023-04-07T17:34:10.211Z,100.00
2023-04-07T17:36:59.971Z,100.00
2023-04-07T17:39:47.237Z,100.00
2023-04-07T17:42:33.839Z,100.00
2023-04-07T17:45:20.162Z,100.00
2023-04-07T17:48:10.772Z,100.00
2023-04-07T17:50:58.739Z,100.00
2023-04-07T17:53:44.994Z,100.00
2023-04-07T17:56:31.667Z,100.00
2023-04-07T17:59:18.039Z,100.00
2023-04-07T18:02:09.230Z,100.00
2023-04-07T18:05:01.453Z,100.00
2023-04-07T18:07:48.428Z,100.00
2023-04-07T18:10:34.751Z,100.00
2023-04-07T18:13:20.736Z,100.00
2023-04-07T18:16:12.088Z,100.00
2023-04-07T18:18:57.916Z,100.00
2023-04-07T18:21:44.316Z,100.00
2023-04-07T18:24:30.485Z,100.00
2023-04-07T18:27:17.047Z,100.00
2023-04-07T18:30:03.271Z,100.00
2023-04-07T18:32:52.927Z,100.00
2023-04-07T18:35:39.382Z,100.00
2023-04-07T18:38:26.472Z,100.00
2023-04-07T18:41:12.586Z,100.00
2023-04-07T18:43:59.013Z,100.00
2023-04-07T18:46:46.310Z,100.00
2023-04-07T18:49:32.537Z,100.00
2023-04-07T18:52:18.623Z,100.00
2023-04-07T18:55:06.210Z,100.00
2023-04-07T18:57:52.616Z,100.00
2023-04-07T19:00:39.125Z,100.00
2023-04-07T19:03:26.521Z,100.00
2023-04-07T19:06:15.461Z,100.00
2023-04-07T19:09:01.578Z,100.00
2023-04-07T19:11:48.168Z,100.00
2023-04-07T19:14:35.831Z,100.00
2023-04-07T19:17:22.381Z,100.00
2023-04-07T19:20:09.087Z,100.00
2023-04-07T19:22:57.516Z,100.00
2023-04-07T19:25:45.779Z,100.00
2023-04-07T19:28:33.947Z,100.00
2023-04-07T19:31:19.682Z,100.00
2023-04-07T19:34:05.571Z,100.00
2023-04-07T19:36:51.831Z,100.00
2023-04-07T19:39:39.375Z,100.00
2023-04-07T19:42:26.493Z,100.00
2023-04-07T19:45:12.914Z,100.00
2023-04-07T19:48:00.156Z,100.00
2023-04-07T19:50:48.285Z,100.00
2023-04-07T19:53:34.425Z,100.00
2023-04-07T19:56:20.401Z,100.00
2023-04-07T19:59:08.211Z,100.00
2023-04-07T20:01:55.004Z,100.00
2023-04-07T20:04:41.201Z,100.00
2023-04-07T20:07:27.862Z,100.00
2023-04-07T20:10:13.619Z,100.00
2023-04-07T20:13:00.372Z,100.00
2023-04-07T20:15:46.973Z,100.00
2023-04-07T20:18:33.193Z,100.00
2023-04-07T20:21:19.406Z,100.00
2023-04-07T20:24:05.306Z,100.00
2023-04-07T20:26:51.776Z,100.00
2023-04-07T20:29:38.218Z,100.00
2023-04-07T20:32:24.292Z,100.00
2023-04-07T20:35:12.048Z,100.00
2023-04-07T20:37:57.876Z,100.00
2023-04-07T20:40:46.195Z,100.00
2023-04-07T20:43:32.026Z,100.00
2023-04-07T20:46:19.463Z,100.00
2023-04-07T20:49:07.900Z,100.00
2023-04-07T20:51:55.646Z,100.00
2023-04-07T20:54:45.202Z,100.00
2023-04-07T20:57:32.089Z,100.00
2023-04-07T21:00:19.099Z,100.00
2023-04-07T21:03:05.415Z,100.00
2023-04-07T21:05:51.554Z,100.00
2023-04-07T21:08:37.795Z,100.00
2023-04-07T21:11:23.352Z,100.00
2023-04-07T21:14:09.577Z,100.00
2023-04-07T21:16:55.480Z,100.00
2023-04-07T21:19:42.434Z,100.00
2023-04-07T21:22:28.724Z,100.00
2023-04-07T21:25:14.955Z,100.00
2023-04-07T21:28:00.573Z,100.00
2023-04-07T21:30:46.808Z,100.00
2023-04-07T21:33:33.482Z,100.00
2023-04-07T21:36:19.598Z,100.00
2023-04-07T21:39:05.229Z,100.00
2023-04-07T21:41:51.275Z,100.00
2023-04-07T21:44:37.126Z,100.00
2023-04-07T21:47:23.064Z,100.00
2023-04-07T21:50:09.602Z,100.00
2023-04-07T21:52:55.839Z,100.00
2023-04-07T21:55:41.814Z,100.00
2023-04-07T21:58:28.169Z,100.00
2023-04-07T22:01:14.084Z,100.00
2023-04-07T22:04:00.864Z,100.00
2023-04-07T22:06:47.474Z,100.00
2023-04-07T22:09:33.672Z,100.00
2023-04-07T22:12:19.490Z,100.00
2023-04-07T22:15:06.732Z,100.00
2023-04-07T22:17:52.594Z,100.00
2023-04-07T22:20:38.974Z,100.00
2023-04-07T22:23:24.718Z,100.00
2023-04-07T22:26:11.121Z,100.00
2023-04-07T22:28:56.847Z,100.00
2023-04-07T22:31:43.478Z,100.00
2023-04-07T22:34:29.289Z,100.00
2023-04-07T22:37:15.829Z,100.00
2023-04-07T22:40:02.402Z,100.00
2023-04-07T22:42:52.157Z,100.00
2023-04-07T22:45:37.755Z,100.00
2023-04-07T22:48:23.887Z,100.00
2023-04-07T22:51:09.631Z,100.00
2023-04-07T22:53:55.838Z,100.00
2023-04-07T22:56:42.749Z,100.00
2023-04-07T22:59:28.721Z,100.00
2023-04-07T23:02:15.541Z,100.00
2023-04-07T23:05:02.154Z,100.00
2023-04-07T23:07:49.226Z,100.00
2023-04-07T23:10:35.618Z,100.00
2023-04-07T23:13:21.605Z,100.00
2023-04-07T23:16:12.162Z,100.00
2023-04-07T23:18:58.084Z,100.00
2023-04-07T23:21:44.305Z,100.00
2023-04-07T23:24:30.442Z,100.00
2023-04-07T23:27:17.538Z,100.00
2023-04-07T23:30:04.310Z,100.00
2023-04-07T23:32:51.879Z,100.00
2023-04-07T23:35:37.651Z,100.00
2023-04-07T23:38:24.940Z,100.00
2023-04-07T23:41:10.831Z,100.00
2023-04-07T23:43:57.283Z,100.00
2023-04-07T23:46:43.515Z,100.00
2023-04-07T23:49:29.646Z,100.00
2023-04-07T23:52:16.419Z,100.00
2023-04-07T23:55:02.702Z,100.00
2023-04-07T23:57:48.844Z,100.00
